Terminal Aerodrome Forecast
Issued by NWS

Home | Current Version | Previous Version | Text Only | Print | Product List | Glossary On
Versions: 1 2 3 4 5 6 7 8 9 10 11 12 13 14
347
FTUS45 KRIW 301723
TAFRKS
TAF
KRKS 301723Z 3018/3118 12007KT P6SM FEW120
     FM302000 27014G24KT P6SM VCTS SCT110CB BKN200
     FM310200 24011KT P6SM VCSH BKN110
     FM310600 22008KT P6SM SCT120
     FM311400 25008KT P6SM SCT100 BKN150=

USA.gov is the U.S. government's official web portal to all federal, state and local government web resources and services.